createdAt,value
2018-03-06T00:01:30.107Z,23.10
2018-03-06T00:03:56.738Z,24.00
2018-03-06T00:06:23.377Z,23.00
2018-03-06T00:08:50.486Z,24.50
2018-03-06T00:11:17.135Z,24.17
2018-03-06T00:13:43.976Z,24.93
2018-03-06T00:16:10.727Z,24.00
2018-03-06T00:18:37.413Z,25.47
2018-03-06T00:21:04.143Z,24.90
2018-03-06T00:23:30.823Z,23.63
2018-03-06T00:25:57.873Z,26.77
2018-03-06T00:28:24.571Z,27.00
2018-03-06T00:30:51.282Z,26.33
2018-03-06T00:33:18.060Z,29.20
2018-03-06T00:35:44.777Z,28.50
2018-03-06T00:38:11.440Z,29.10
2018-03-06T00:40:38.119Z,29.17
2018-03-06T00:43:04.770Z,28.87
2018-03-06T00:45:31.500Z,29.90
2018-03-06T00:47:58.158Z,29.07
2018-03-06T00:50:24.934Z,29.57
2018-03-06T00:52:51.565Z,28.43
2018-03-06T00:55:18.309Z,29.73
2018-03-06T00:57:44.992Z,29.83
2018-03-06T01:00:11.630Z,29.10
2018-03-06T01:02:38.423Z,30.00
2018-03-06T01:05:05.084Z,30.30
2018-03-06T01:07:31.749Z,29.73
2018-03-06T01:09:58.459Z,31.10
2018-03-06T01:12:25.204Z,30.57
2018-03-06T01:14:51.955Z,29.57
2018-03-06T01:17:18.617Z,28.57
2018-03-06T01:19:45.290Z,30.80
2018-03-06T01:22:12.070Z,30.30
2018-03-06T01:24:38.846Z,30.10
2018-03-06T01:27:05.531Z,29.67
2018-03-06T01:29:33.731Z,31.93
2018-03-06T01:32:00.433Z,31.50
2018-03-06T01:34:27.371Z,30.93
2018-03-06T01:36:54.169Z,32.23
2018-03-06T01:39:20.815Z,31.53
2018-03-06T01:41:47.991Z,32.90
2018-03-06T01:44:14.645Z,31.83
2018-03-06T01:46:41.400Z,32.30
2018-03-06T01:49:08.465Z,30.50
2018-03-06T01:51:41.269Z,32.00
2018-03-06T01:54:07.941Z,33.50
2018-03-06T01:56:35.020Z,34.70
2018-03-06T01:59:01.747Z,33.23
2018-03-06T02:01:28.545Z,35.00
2018-03-06T02:03:55.342Z,33.80
2018-03-06T02:06:21.974Z,31.20
2018-03-06T02:08:48.640Z,32.20
2018-03-06T02:11:15.316Z,29.43
2018-03-06T02:13:41.989Z,33.63
2018-03-06T02:16:08.710Z,34.53
2018-03-06T02:18:35.372Z,35.10
2018-03-06T02:21:02.278Z,33.90
2018-03-06T02:23:29.733Z,35.20
2018-03-06T02:25:56.415Z,33.53
2018-03-06T02:28:23.123Z,32.77
2018-03-06T02:30:49.782Z,34.73
2018-03-06T02:33:17.188Z,31.70
2018-03-06T02:35:43.880Z,33.77
2018-03-06T02:38:11.346Z,34.00
2018-03-06T02:40:38.132Z,34.93
2018-03-06T02:43:04.948Z,36.07
2018-03-06T02:45:31.574Z,37.37
2018-03-06T02:47:58.303Z,36.13
2018-03-06T02:50:24.967Z,35.13
2018-03-06T02:52:51.756Z,34.93
2018-03-06T02:55:18.439Z,36.57
2018-03-06T02:57:45.218Z,38.10
2018-03-06T03:00:12.053Z,38.40
2018-03-06T03:02:38.942Z,35.30
2018-03-06T03:05:05.570Z,36.47
2018-03-06T03:07:32.221Z,39.00
2018-03-06T03:09:58.879Z,37.23
2018-03-06T03:12:25.570Z,40.13
2018-03-06T03:14:52.408Z,39.30
2018-03-06T03:17:19.307Z,37.57
2018-03-06T03:19:46.005Z,38.70
2018-03-06T03:22:12.658Z,40.83
2018-03-06T03:24:39.531Z,40.30
2018-03-06T03:27:06.422Z,39.47
2018-03-06T03:29:33.073Z,40.00
2018-03-06T03:31:59.953Z,40.30
2018-03-06T03:34:26.618Z,39.93
2018-03-06T03:36:53.802Z,41.00
2018-03-06T03:39:20.662Z,39.23
2018-03-06T03:41:47.403Z,42.73
2018-03-06T03:44:14.081Z,40.43
2018-03-06T03:46:40.831Z,43.43
2018-03-06T03:49:07.701Z,39.80
2018-03-06T03:51:34.590Z,42.27
2018-03-06T03:54:01.520Z,43.23
2018-03-06T03:56:28.194Z,42.97
2018-03-06T03:58:54.890Z,42.63
2018-03-06T04:01:21.537Z,41.43
2018-03-06T04:03:48.250Z,43.47
2018-03-06T04:06:15.036Z,42.93
2018-03-06T04:08:41.864Z,44.80
2018-03-06T04:11:08.624Z,43.67
2018-03-06T04:13:35.277Z,44.53
2018-03-06T04:16:02.002Z,45.50
2018-03-06T04:18:28.637Z,42.60
2018-03-06T04:20:55.304Z,45.73
2018-03-06T04:23:22.160Z,44.57
2018-03-06T04:25:48.859Z,43.90
2018-03-06T04:28:15.619Z,44.90
2018-03-06T04:30:42.378Z,44.27
2018-03-06T04:33:09.074Z,46.60
2018-03-06T04:35:35.756Z,44.00
2018-03-06T04:38:02.445Z,44.00
2018-03-06T04:40:29.156Z,43.90
2018-03-06T04:42:55.836Z,43.97
2018-03-06T04:45:22.565Z,46.80
2018-03-06T04:47:49.260Z,46.53
2018-03-06T04:50:16.011Z,44.73
2018-03-06T04:52:42.692Z,44.90
2018-03-06T04:55:09.336Z,44.80
2018-03-06T04:57:36.041Z,46.23
2018-03-06T05:00:02.684Z,46.07
2018-03-06T05:02:29.406Z,45.23
2018-03-06T05:04:56.073Z,46.30
2018-03-06T05:07:22.819Z,45.87
2018-03-06T05:09:49.495Z,45.30
2018-03-06T05:12:16.161Z,46.13
2018-03-06T05:14:42.831Z,44.90
2018-03-06T05:17:09.543Z,42.77
2018-03-06T05:19:36.283Z,43.77
2018-03-06T05:22:03.187Z,41.00
2018-03-06T05:24:29.964Z,41.93
2018-03-06T05:26:56.679Z,45.27
2018-03-06T05:29:23.406Z,43.50
2018-03-06T05:31:50.057Z,43.63
2018-03-06T05:34:16.815Z,45.67
2018-03-06T05:36:44.286Z,43.40
2018-03-06T05:39:11.044Z,45.80
2018-03-06T05:41:39.470Z,45.17
2018-03-06T05:44:06.194Z,46.43
2018-03-06T05:46:33.746Z,45.57
2018-03-06T05:49:00.438Z,45.63
2018-03-06T05:51:27.161Z,43.30
2018-03-06T05:53:53.854Z,43.60
2018-03-06T05:56:20.547Z,40.27
2018-03-06T05:58:47.246Z,40.70
2018-03-06T06:01:13.915Z,33.47
2018-03-06T06:03:42.355Z,29.13
2018-03-06T06:06:09.010Z,28.13
2018-03-06T06:08:44.932Z,27.23
2018-03-06T06:11:16.167Z,27.70
2018-03-06T06:13:42.944Z,24.30
2018-03-06T06:16:09.572Z,22.93
2018-03-06T06:18:36.412Z,21.20
2018-03-06T06:21:03.027Z,19.97
2018-03-06T06:23:30.796Z,19.90
2018-03-06T06:25:57.454Z,18.10
2018-03-06T06:28:24.102Z,17.47
2018-03-06T06:30:51.241Z,17.20
2018-03-06T06:33:17.906Z,16.10
2018-03-06T06:35:44.551Z,16.27
2018-03-06T06:38:11.442Z,15.60
2018-03-06T06:40:38.112Z,15.53
2018-03-06T06:43:04.763Z,16.60
2018-03-06T06:45:31.392Z,15.33
2018-03-06T06:47:58.032Z,17.10
2018-03-06T06:50:24.688Z,16.87
2018-03-06T06:52:51.347Z,16.63
2018-03-06T06:55:17.992Z,18.73
2018-03-06T06:57:44.638Z,18.13
2018-03-06T07:00:11.270Z,17.40
2018-03-06T07:02:37.915Z,16.50
2018-03-06T07:05:04.544Z,17.50
2018-03-06T07:07:31.199Z,18.67
2018-03-06T07:09:57.895Z,17.27
2018-03-06T07:12:24.765Z,19.33
2018-03-06T07:14:51.777Z,17.43
2018-03-06T07:17:18.414Z,18.87
2018-03-06T07:19:45.261Z,20.47
2018-03-06T07:22:11.899Z,20.83
2018-03-06T07:24:38.553Z,19.90
2018-03-06T07:27:05.556Z,23.07
2018-03-06T07:32:18.036Z,22.73
2018-03-06T07:34:44.689Z,22.77
2018-03-06T07:37:11.432Z,21.60
2018-03-06T07:39:38.114Z,22.03
2018-03-06T07:42:05.430Z,23.33
2018-03-06T07:44:32.070Z,22.27
2018-03-06T07:46:58.716Z,21.70
2018-03-06T07:49:25.364Z,24.63
2018-03-06T07:51:52.008Z,26.03
2018-03-06T07:54:18.671Z,25.07
2018-03-06T07:56:45.312Z,23.87
2018-03-06T07:59:11.925Z,25.90
2018-03-06T08:01:38.588Z,24.87
2018-03-06T08:04:05.258Z,24.57
2018-03-06T08:06:31.910Z,26.27
2018-03-06T08:08:58.532Z,24.20
2018-03-06T08:11:25.158Z,24.63
2018-03-06T08:13:51.806Z,25.10
2018-03-06T08:16:18.800Z,23.13
2018-03-06T08:18:45.436Z,24.47
2018-03-06T08:21:12.083Z,23.63
2018-03-06T08:23:38.706Z,24.67
2018-03-06T08:26:05.335Z,25.30
2018-03-06T08:28:32.003Z,23.70
2018-03-06T08:30:58.663Z,23.27
2018-03-06T08:33:25.323Z,25.03
2018-03-06T08:35:51.953Z,25.07
2018-03-06T08:38:18.642Z,24.60
2018-03-06T08:40:45.278Z,23.80
2018-03-06T08:43:11.938Z,24.40
2018-03-06T08:45:38.591Z,25.23
2018-03-06T08:48:05.230Z,24.40
2018-03-06T08:50:31.889Z,26.40
2018-03-06T08:52:58.538Z,26.23
2018-03-06T08:55:25.148Z,25.37
2018-03-06T08:57:51.806Z,26.40
2018-03-06T09:00:18.443Z,27.50
2018-03-06T09:02:45.116Z,28.23
2018-03-06T09:05:11.732Z,26.93
2018-03-06T09:07:38.358Z,27.50
2018-03-06T09:10:05.048Z,25.73
2018-03-06T09:12:31.713Z,27.17
2018-03-06T09:14:58.346Z,27.30
2018-03-06T09:17:24.999Z,26.37
2018-03-06T09:19:51.675Z,26.67
2018-03-06T09:22:18.326Z,28.33
2018-03-06T09:24:44.978Z,27.33
2018-03-06T09:27:11.677Z,26.30
2018-03-06T09:29:38.283Z,27.40
2018-03-06T09:32:04.970Z,28.30
2018-03-06T09:34:31.630Z,26.63
2018-03-06T09:36:58.300Z,27.00
2018-03-06T09:39:24.998Z,26.67
2018-03-06T09:41:51.691Z,27.30
2018-03-06T09:44:18.326Z,26.57
2018-03-06T09:46:44.975Z,27.17
2018-03-06T09:49:11.665Z,28.30
2018-03-06T09:51:38.280Z,28.83
2018-03-06T09:54:04.938Z,29.33
2018-03-06T09:56:31.564Z,29.50
2018-03-06T09:58:58.194Z,30.63
2018-03-06T10:01:24.832Z,30.07
2018-03-06T10:03:51.469Z,31.70
2018-03-06T10:06:18.508Z,30.60
2018-03-06T10:08:45.148Z,32.20
2018-03-06T10:11:11.789Z,31.23
2018-03-06T10:13:38.451Z,32.50
2018-03-06T10:16:05.093Z,34.90
2018-03-06T10:18:31.764Z,32.80
2018-03-06T10:20:58.442Z,33.90
2018-03-06T10:23:25.081Z,33.57
2018-03-06T10:25:51.733Z,31.73
2018-03-06T10:28:18.390Z,34.40
2018-03-06T10:30:45.021Z,32.80
2018-03-06T10:33:11.703Z,32.00
2018-03-06T10:35:38.354Z,31.50
2018-03-06T10:38:05.316Z,31.37
2018-03-06T10:40:31.944Z,30.70
2018-03-06T10:42:58.589Z,31.20
2018-03-06T10:45:25.276Z,32.13
2018-03-06T10:47:51.971Z,31.00
2018-03-06T10:50:18.629Z,31.10
2018-03-06T10:52:45.267Z,29.90
2018-03-06T10:55:11.952Z,30.43
2018-03-06T10:57:38.580Z,31.90
2018-03-06T11:00:05.276Z,31.90
2018-03-06T11:02:31.899Z,31.60
2018-03-06T11:04:58.866Z,34.40
2018-03-06T11:07:25.484Z,33.50
2018-03-06T11:09:52.123Z,33.80
2018-03-06T11:12:18.804Z,34.77
2018-03-06T11:14:45.433Z,33.60
2018-03-06T11:17:12.154Z,34.73
2018-03-06T11:19:38.762Z,33.90
2018-03-06T11:22:05.402Z,32.90
2018-03-06T11:24:32.046Z,31.03
2018-03-06T11:26:58.720Z,32.10
2018-03-06T11:29:25.396Z,28.83
2018-03-06T11:31:52.047Z,29.53
2018-03-06T11:34:18.681Z,32.87
2018-03-06T11:36:45.430Z,33.10
2018-03-06T11:39:12.071Z,32.53
2018-03-06T11:41:38.706Z,36.17
2018-03-06T11:44:05.421Z,36.47
2018-03-06T11:46:32.071Z,40.60
2018-03-06T11:48:58.775Z,38.93
2018-03-06T11:51:25.421Z,37.77
2018-03-06T11:53:52.105Z,39.93
2018-03-06T11:56:19.242Z,39.27
2018-03-06T11:58:45.875Z,38.60
2018-03-06T12:01:12.542Z,35.83
2018-03-06T12:03:39.221Z,35.37
2018-03-06T12:06:05.856Z,37.13
2018-03-06T12:08:32.530Z,37.30
2018-03-06T12:10:59.196Z,35.20
2018-03-06T12:13:26.112Z,34.17
2018-03-06T12:15:52.758Z,36.90
2018-03-06T12:18:19.437Z,35.37
2018-03-06T12:20:46.165Z,36.10
2018-03-06T12:23:12.808Z,34.43
2018-03-06T12:25:39.486Z,33.13
2018-03-06T12:28:06.137Z,33.90
2018-03-06T12:30:32.783Z,35.20
2018-03-06T12:33:00.130Z,34.40
2018-03-06T12:35:26.781Z,35.73
2018-03-06T12:37:53.445Z,37.03
2018-03-06T12:40:20.098Z,38.00
2018-03-06T12:42:46.747Z,36.40
2018-03-06T12:45:13.430Z,36.20
2018-03-06T12:47:40.086Z,37.70
2018-03-06T12:50:06.821Z,37.43
2018-03-06T12:52:33.485Z,36.87
2018-03-06T12:55:00.146Z,35.07
2018-03-06T12:57:26.907Z,35.93
2018-03-06T12:59:53.544Z,35.40
2018-03-06T13:02:20.190Z,36.00
2018-03-06T13:04:46.843Z,34.90
2018-03-06T13:07:13.555Z,35.10
2018-03-06T13:09:40.260Z,36.17
2018-03-06T13:12:06.945Z,34.37
2018-03-06T13:14:33.584Z,36.00
2018-03-06T13:17:00.430Z,37.60
2018-03-06T13:19:27.132Z,35.13
2018-03-06T13:21:53.834Z,36.17
2018-03-06T13:24:20.508Z,32.30
2018-03-06T13:26:47.206Z,31.40
2018-03-06T13:29:13.998Z,32.67
2018-03-06T13:31:40.704Z,32.17
2018-03-06T13:34:07.345Z,32.37
2018-03-06T13:36:34.197Z,29.70
2018-03-06T13:39:01.238Z,30.20
2018-03-06T13:41:27.955Z,28.90
2018-03-06T13:43:54.605Z,27.30
2018-03-06T13:46:21.253Z,28.13
2018-03-06T13:48:47.958Z,29.63
2018-03-06T13:51:14.705Z,29.70
2018-03-06T13:53:41.694Z,27.33
2018-03-06T13:56:08.362Z,26.00
2018-03-06T13:58:34.998Z,24.83
2018-03-06T14:01:01.639Z,23.97
2018-03-06T14:03:28.346Z,25.70
2018-03-06T14:05:54.962Z,25.53
2018-03-06T14:08:21.618Z,27.23
2018-03-06T14:10:48.260Z,24.50
2018-03-06T14:13:14.940Z,24.67
2018-03-06T14:15:41.628Z,25.97
2018-03-06T14:18:08.285Z,26.60
2018-03-06T14:20:35.088Z,23.60
2018-03-06T14:23:02.950Z,25.10
2018-03-06T14:25:29.624Z,26.00
2018-03-06T14:27:56.293Z,26.13
2018-03-06T14:30:22.963Z,28.00
2018-03-06T14:32:49.626Z,25.87
2018-03-06T14:35:16.282Z,27.17
2018-03-06T14:37:42.901Z,26.17
2018-03-06T14:40:09.666Z,26.50
2018-03-06T14:42:36.330Z,27.53
2018-03-06T14:45:03.062Z,28.17
2018-03-06T14:47:29.729Z,28.40
2018-03-06T14:49:56.438Z,28.80
2018-03-06T14:52:23.063Z,27.30
2018-03-06T14:54:49.728Z,28.50
2018-03-06T14:57:16.446Z,29.97
2018-03-06T14:59:43.237Z,30.40
2018-03-06T15:02:09.953Z,29.33
2018-03-06T15:04:36.604Z,29.70
2018-03-06T15:07:03.324Z,29.57
2018-03-06T15:09:29.960Z,28.43
2018-03-06T15:11:56.727Z,28.17
2018-03-06T15:14:23.376Z,28.70
2018-03-06T15:16:50.101Z,29.63
2018-03-06T15:19:16.762Z,31.90
2018-03-06T15:21:44.347Z,33.17
2018-03-06T15:24:11.303Z,32.70
2018-03-06T15:26:37.973Z,31.80
2018-03-06T15:29:04.631Z,31.57
2018-03-06T15:31:31.371Z,33.50
2018-03-06T15:33:59.702Z,32.60
2018-03-06T15:36:26.424Z,36.17
2018-03-06T15:38:53.236Z,34.03
2018-03-06T15:41:21.791Z,34.50
2018-03-06T15:43:48.502Z,33.83
2018-03-06T15:46:15.148Z,36.57
2018-03-06T15:48:41.890Z,33.77
2018-03-06T15:51:08.599Z,35.60
2018-03-06T15:53:35.535Z,34.67
2018-03-06T15:56:02.263Z,34.40
2018-03-06T15:58:28.978Z,34.20
2018-03-06T16:00:55.938Z,35.07
2018-03-06T16:03:22.589Z,34.33
2018-03-06T16:05:49.245Z,34.00
2018-03-06T16:08:15.888Z,35.70
2018-03-06T16:10:42.548Z,32.07
2018-03-06T16:13:09.273Z,33.73
2018-03-06T16:15:35.925Z,32.27
2018-03-06T16:18:02.609Z,32.03
2018-03-06T16:20:29.300Z,31.43
2018-03-06T16:22:55.971Z,30.93
2018-03-06T16:25:22.703Z,30.10
2018-03-06T16:27:49.460Z,29.67
2018-03-06T16:30:16.135Z,30.53
2018-03-06T16:32:42.866Z,28.77
2018-03-06T16:35:09.569Z,27.80
2018-03-06T16:37:36.261Z,29.27
2018-03-06T16:40:02.954Z,28.20
2018-03-06T16:42:30.227Z,28.87
2018-03-06T16:44:57.039Z,28.07
2018-03-06T16:47:23.766Z,28.70
2018-03-06T16:49:50.460Z,28.40
2018-03-06T16:52:17.100Z,28.27
2018-03-06T16:54:48.238Z,25.77
2018-03-06T16:57:16.518Z,24.90
2018-03-06T16:59:43.127Z,22.37
2018-03-06T17:02:10.633Z,18.77
2018-03-06T17:04:37.249Z,21.73
2018-03-06T17:07:03.991Z,20.50
2018-03-06T17:09:30.979Z,21.00
2018-03-06T17:11:57.740Z,20.13
2018-03-06T17:14:24.485Z,20.70
2018-03-06T17:16:51.130Z,20.03
2018-03-06T17:19:17.864Z,20.53
2018-03-06T17:21:44.480Z,21.90
2018-03-06T17:24:11.151Z,22.70
2018-03-06T17:26:39.941Z,23.43
2018-03-06T17:29:06.819Z,23.00
2018-03-06T17:31:33.499Z,23.30
2018-03-06T17:34:00.922Z,23.83
2018-03-06T17:36:27.585Z,23.03
2018-03-06T17:38:54.421Z,22.63
2018-03-06T17:41:21.118Z,23.60
2018-03-06T17:43:47.824Z,22.37
2018-03-06T17:46:14.891Z,24.43
2018-03-06T17:48:41.626Z,22.80
2018-03-06T17:51:09.576Z,22.10
2018-03-06T17:53:37.681Z,19.97
2018-03-06T17:56:04.670Z,18.70
2018-03-06T17:58:31.399Z,17.97
2018-03-06T18:00:58.050Z,17.03
2018-03-06T18:03:24.679Z,16.07
2018-03-06T18:05:51.299Z,14.90
2018-03-06T18:08:18.058Z,13.53
2018-03-06T18:10:44.955Z,14.33
2018-03-06T18:13:11.607Z,13.37
2018-03-06T18:15:38.310Z,13.60
2018-03-06T18:18:05.454Z,13.17
2018-03-06T18:20:33.357Z,11.40
2018-03-06T18:23:00.010Z,9.87
2018-03-06T18:25:26.655Z,10.00
2018-03-06T18:27:53.329Z,10.73
2018-03-06T18:30:20.433Z,9.40
2018-03-06T18:32:47.309Z,9.40
2018-03-06T18:35:13.926Z,10.63
2018-03-06T18:37:41.786Z,9.90
2018-03-06T18:40:09.043Z,11.00
2018-03-06T18:42:35.690Z,12.13
2018-03-06T18:45:02.383Z,12.23
2018-03-06T18:47:29.226Z,13.33
2018-03-06T18:50:03.439Z,12.77
2018-03-06T18:52:30.148Z,12.80
2018-03-06T18:54:56.863Z,13.20
2018-03-06T18:57:23.754Z,14.10
2018-03-06T18:59:56.326Z,14.93
2018-03-06T19:02:28.803Z,14.90
2018-03-06T19:05:01.202Z,15.37
2018-03-06T19:07:27.858Z,15.57
2018-03-06T19:09:54.530Z,15.70
2018-03-06T19:12:21.629Z,16.43
2018-03-06T19:14:48.342Z,15.80
2018-03-06T19:17:14.970Z,17.90
2018-03-06T19:19:41.827Z,17.80
2018-03-06T19:22:09.004Z,18.47
2018-03-06T19:24:35.729Z,17.43
2018-03-06T19:27:04.185Z,16.13
2018-03-06T19:29:31.180Z,16.93
2018-03-06T19:31:57.874Z,17.73
2018-03-06T19:34:24.615Z,16.17
2018-03-06T19:36:51.414Z,16.23
2018-03-06T19:39:18.122Z,16.73
2018-03-06T19:41:44.868Z,17.00
2018-03-06T19:44:11.881Z,17.07
2018-03-06T19:46:38.512Z,17.20
2018-03-06T19:49:05.190Z,16.13
2018-03-06T19:51:31.911Z,15.40
2018-03-06T19:53:58.580Z,16.20
2018-03-06T19:56:25.528Z,14.87
2018-03-06T19:58:52.178Z,15.60
2018-03-06T20:01:19.334Z,14.37
2018-03-06T20:03:46.008Z,14.67
2018-03-06T20:06:13.024Z,14.50
2018-03-06T20:08:39.721Z,15.10
2018-03-06T20:11:06.938Z,15.00
2018-03-06T20:13:33.639Z,14.57
2018-03-06T20:16:00.577Z,13.80
2018-03-06T20:18:27.417Z,13.73
2018-03-06T20:20:54.142Z,13.67
2018-03-06T20:23:21.351Z,13.83
2018-03-06T20:25:54.149Z,14.83
2018-03-06T20:28:20.812Z,14.70
2018-03-06T20:30:53.164Z,15.83
2018-03-06T20:33:19.831Z,14.47
2018-03-06T20:35:46.653Z,15.80
2018-03-06T20:38:19.192Z,15.23
2018-03-06T20:40:46.043Z,15.07
2018-03-06T20:43:12.817Z,15.23
2018-03-06T20:45:45.245Z,16.17
2018-03-06T20:48:12.116Z,15.37
2018-03-06T20:50:39.127Z,15.13
2018-03-06T20:53:11.453Z,15.67
2018-03-06T20:55:38.109Z,15.47
2018-03-06T20:58:04.819Z,16.10
2018-03-06T21:00:31.490Z,15.13
2018-03-06T21:03:00.173Z,16.17
2018-03-06T21:05:26.811Z,14.80
2018-03-06T21:07:53.483Z,14.87
2018-03-06T21:10:20.152Z,14.57
2018-03-06T21:12:47.016Z,14.47
2018-03-06T21:15:13.711Z,14.73
2018-03-06T21:17:40.551Z,13.30
2018-03-06T21:20:07.992Z,13.53
2018-03-06T21:22:34.695Z,14.50
2018-03-06T21:25:01.616Z,13.27
2018-03-06T21:27:28.276Z,13.50
2018-03-06T21:29:55.174Z,13.50
2018-03-06T21:32:21.840Z,12.47
2018-03-06T21:34:48.839Z,13.37
2018-03-06T21:37:15.527Z,11.37
2018-03-06T21:39:42.290Z,11.87
2018-03-06T21:42:09.126Z,11.50
2018-03-06T21:44:35.762Z,11.23
2018-03-06T21:47:02.461Z,12.73
2018-03-06T21:49:29.221Z,12.70
2018-03-06T21:51:55.935Z,12.03
2018-03-06T21:54:22.673Z,11.63
2018-03-06T21:56:49.364Z,12.53
2018-03-06T21:59:16.093Z,12.33
2018-03-06T22:01:43.913Z,11.67
2018-03-06T22:04:11.193Z,13.80
2018-03-06T22:06:37.963Z,14.07
2018-03-06T22:09:04.791Z,13.73
2018-03-06T22:11:31.679Z,14.80
2018-03-06T22:13:58.373Z,16.70
2018-03-06T22:16:25.088Z,16.50
2018-03-06T22:18:51.721Z,16.60
2018-03-06T22:21:18.467Z,17.40
2018-03-06T22:23:45.863Z,16.60
2018-03-06T22:26:13.063Z,17.30
2018-03-06T22:28:39.756Z,17.33
2018-03-06T22:31:06.409Z,18.37
2018-03-06T22:33:33.090Z,18.70
2018-03-06T22:35:59.767Z,17.87
2018-03-06T22:38:26.470Z,17.53
2018-03-06T22:40:53.114Z,17.47
2018-03-06T22:43:19.768Z,18.13
2018-03-06T22:45:46.424Z,17.50
2018-03-06T22:48:13.994Z,17.17
2018-03-06T22:50:40.750Z,17.77
2018-03-06T22:53:07.456Z,19.17
2018-03-06T22:55:34.127Z,19.70
2018-03-06T22:58:00.792Z,17.40
2018-03-06T23:00:27.540Z,20.27
2018-03-06T23:02:54.202Z,17.37
2018-03-06T23:05:21.047Z,19.70
2018-03-06T23:07:47.694Z,19.30
2018-03-06T23:10:14.320Z,20.30
2018-03-06T23:12:40.964Z,19.50
2018-03-06T23:15:07.622Z,20.70
2018-03-06T23:17:34.306Z,21.20
2018-03-06T23:20:00.990Z,18.97
2018-03-06T23:22:27.657Z,21.17
2018-03-06T23:24:54.291Z,19.70
2018-03-06T23:27:20.941Z,21.00
2018-03-06T23:29:47.836Z,20.37
2018-03-06T23:32:14.682Z,20.33
2018-03-06T23:34:41.337Z,21.70
2018-03-06T23:37:07.957Z,21.73
2018-03-06T23:39:34.603Z,21.97
2018-03-06T23:42:01.241Z,21.57
2018-03-06T23:44:27.884Z,21.60
2018-03-06T23:46:54.615Z,22.73
2018-03-06T23:49:21.272Z,23.13
2018-03-06T23:51:47.971Z,24.30
2018-03-06T23:54:14.828Z,23.37
2018-03-06T23:56:41.771Z,23.47
2018-03-06T23:59:08.621Z,24.10
